Villa Park, Illinois
Current Conditions -  °F | °C
As of 2:51 AM on Sunday 21 Dec 2014 (Local Time) from KORD Reporting Station
Overcast Overcast  
Wind Chill: 26°   Ceiling: 2000
Heat Index: 32°   Visibility: 8mi
Dew Point: 26°   Wind: 7mph
Humidity: 79%   Direction: 180°S
Pressure: 30.23"   Gusts: NA
Location:  41.89°N, 87.98°W
Report Text: KORD 210851Z 18006KT 8SM BKN020 OVC042 00/M03 A3023 RMK AO2 SLP244 T00001033 56002
Loading
Personal Weather Stations






























Interactive Weather Map New forecast layout! Learn more

10-Day Weather Forecast

Advertisements
Track Severe Weather on mobile